»·PEaware :: CGDXL KSBP-KSBA

CGDXL :: KSBP-KSBA

FLIGHT INFORMATION

Flight Status: Arrived
Operator: Unknown
More flights by this operator :: More flights under this callsign
Pilot: Pierre B. (1359)
Aircraft: PIPER PA-28 CHEROKEE ARCHER
(P28A)
More flights by this aircraft type
Origin: KSBP San Luis Co Regl
United States
Destination: KSBA Santa Barbara Mun
United States
More flights between these airports :: More routes between these airports
Route: MQO V27 GVO
File this flight plan on PilotEdge
Remarks:
Altitude:
(Current/Filed)
6,000ft
Speed:
(Current/Filed)
105kts
Departed: 02-Dec-19 05:03 PM
Arrived: 02-Dec-19 05:50 PM
Distance/Time
Traveled:
62nm/0:46
Distance/Time
To Go:
Arrived

Flight Plot

Page will automatically refresh every two minutes.


Map Options




Map Legend


Flown Route
Filed Route
Departure Airport
Arrival Airport
Navaid (VOR, NDB)
Fix

Horizontal Profiles

Position Reports

Time Latitude Longitude Heading Altitude Ground
Speed
02-Dec-19 16:46 35.238660 -120.646946 210 215ft 0kts
02-Dec-19 16:47 35.238653 -120.646952 210 215ft 0kts
02-Dec-19 16:48 35.238645 -120.646957 210 215ft 0kts
02-Dec-19 16:49 35.238637 -120.646963 210 215ft 0kts
02-Dec-19 16:50 35.238629 -120.646968 209 215ft 0kts
02-Dec-19 16:51 35.238623 -120.646973 209 215ft 0kts
02-Dec-19 16:52 35.238617 -120.646977 209 215ft 0kts
02-Dec-19 16:53 35.238613 -120.646980 209 215ft 0kts
02-Dec-19 16:54 35.238607 -120.646984 209 215ft 0kts
02-Dec-19 16:55 35.238602 -120.646988 209 215ft 0kts
02-Dec-19 16:56 35.238597 -120.646991 209 215ft 0kts
02-Dec-19 16:57 35.238593 -120.646994 209 215ft 0kts
02-Dec-19 16:58 35.238484 -120.645777 83 215ft 4kts
02-Dec-19 16:59 35.237458 -120.642577 89 215ft 16kts
02-Dec-19 17:00 35.237339 -120.641143 124 215ft 0kts
02-Dec-19 17:01 35.236880 -120.641140 268 215ft 0kts
02-Dec-19 17:02 35.237446 -120.656098 279 478ft 72kts
02-Dec-19 17:03 35.246858 -120.678769 293 1231ft 78kts
02-Dec-19 17:04 35.245608 -120.704219 254 2071ft 74kts
02-Dec-19 17:05 35.241987 -120.728941 268 2825ft 73kts
02-Dec-19 17:06 35.234757 -120.753288 173 3479ft 72kts
02-Dec-19 17:07 35.224560 -120.736335 123 4135ft 69kts
02-Dec-19 17:08 35.211878 -120.720464 153 4741ft 70kts
02-Dec-19 17:09 35.195445 -120.707433 149 5352ft 70kts
02-Dec-19 17:10 35.179811 -120.692014 145 5904ft 73kts
02-Dec-19 17:11 35.162312 -120.674259 145 6083ft 97kts
02-Dec-19 17:12 35.140636 -120.653165 145 6166ft 94kts
02-Dec-19 17:13 35.119781 -120.632651 145 6288ft 96kts
02-Dec-19 17:14 35.097689 -120.611304 147 6024ft 102kts
02-Dec-19 17:15 35.073324 -120.592007 150 6059ft 107kts
02-Dec-19 17:16 35.048020 -120.572016 150 6056ft 109kts
02-Dec-19 17:17 35.022408 -120.551916 148 6055ft 109kts
02-Dec-19 17:18 35.001916 -120.534610 148 6054ft 109kts
02-Dec-19 17:19 34.977863 -120.514268 148 6053ft 109kts
02-Dec-19 17:20 34.952701 -120.493064 148 6054ft 109kts
02-Dec-19 17:21 34.927526 -120.471897 148 6054ft 110kts
02-Dec-19 17:22 34.902188 -120.450832 148 6054ft 110kts
02-Dec-19 17:23 34.877428 -120.428430 143 6054ft 111kts
02-Dec-19 17:24 34.853641 -120.404447 143 6054ft 111kts
02-Dec-19 17:25 34.829697 -120.380601 143 6051ft 111kts
02-Dec-19 17:26 34.805588 -120.356599 143 6050ft 112kts
02-Dec-19 17:27 34.781844 -120.332071 140 6024ft 114kts
02-Dec-19 17:28 34.758787 -120.306588 140 6035ft 113kts
02-Dec-19 17:29 34.735482 -120.281240 140 5992ft 118kts
02-Dec-19 17:30 34.711052 -120.255451 142 5951ft 113kts
02-Dec-19 17:31 34.686698 -120.231100 142 5946ft 113kts
02-Dec-19 17:32 34.662248 -120.206927 142 5943ft 113kts
02-Dec-19 17:33 34.636812 -120.184353 146 5942ft 113kts
02-Dec-19 17:34 34.610813 -120.162718 147 5940ft 113kts
02-Dec-19 17:35 34.584748 -120.141225 146 5792ft 117kts
02-Dec-19 17:36 34.558700 -120.119614 146 5276ft 112kts
02-Dec-19 17:37 34.533159 -120.098310 148 4979ft 111kts
02-Dec-19 17:38 34.504774 -120.095218 167 3999ft 91kts
02-Dec-19 17:39 34.478006 -120.088844 157 3516ft 98kts
02-Dec-19 17:40 34.451192 -120.088662 186 3538ft 100kts
02-Dec-19 17:41 34.424503 -120.086778 126 3429ft 109kts
02-Dec-19 17:42 34.423936 -120.051759 96 2881ft 95kts
02-Dec-19 17:43 34.424242 -120.018073 91 2695ft 99kts
02-Dec-19 17:44 34.425552 -119.983924 92 2152ft 87kts
02-Dec-19 17:45 34.425515 -119.954175 90 1637ft 95kts
02-Dec-19 17:46 34.425709 -119.923244 87 1126ft 82kts
02-Dec-19 17:47 34.426796 -119.896280 90 557ft 81kts
02-Dec-19 17:48 34.427244 -119.869341 88 292ft 83kts
02-Dec-19 17:49 34.427630 -119.847865 88 13ft 36kts
02-Dec-19 17:50 34.428730 -119.844896 56 13ft 12kts
02-Dec-19 17:51 34.430381 -119.840703 76 13ft 12kts
02-Dec-19 17:52 34.432020 -119.837455 340 13ft 3kts
02-Dec-19 17:53 34.432139 -119.837509 340 13ft 0kts

Navigation Log

Ident Type
Flight plan parsing failed, navigation log unavailable